Aegean Viii — SXKO — position and weather

sailwx.info

Track history (hours):
 
Tides and Currents Weather Stations Pressure Air Temp Water Temp Dewpoint Dewpoint Depression Visibility Wind Speed Wind Dir Waves Ship Positions

Aegean Viii

Last reported at 2015-Jul-30 17:33 UTC. Time now 2015-Jul-30 18:10 UTC.
Position N 38°02' E 023°32'.

Length 12 m; draft 4.5 m.

Type: Tanker. MMSI: 240732000.

Date/timePositionNaut miles runAvg speedWind from/ knotsBaromVisibWave heightAir tempDewpointWater temp
2015-Jul-30 17:33N 38°02' E 023°32'0 0.0
2015-Jul-30 16:33N 38°02' E 023°32'0 0.0
2015-Jul-30 15:33N 38°02' E 023°32'1 0.7
2015-Jul-30 14:33N 38°02' E 023°32'5 5.3
2015-Jul-30 13:33N 37°58' E 023°37'0 0.0
2015-Jul-30 12:33N 37°58' E 023°37'0 0.0
2015-Jul-30 11:33N 37°58' E 023°37'2 2.3
2015-Jul-30 10:33N 37°57' E 023°34'0 0.1
2015-Jul-30 09:33N 37°57' E 023°34'0 0.0
2015-Jul-30 08:33N 37°57' E 023°34'0 0.0
2015-Jul-30 07:33N 37°57' E 023°34'3 2.8
2015-Jul-30 06:33N 37°60' E 023°33'2 2.4
2015-Jul-30 05:33N 38°02' E 023°31'0 0.0
2015-Jul-30 04:33N 38°02' E 023°31'0 0.0
2015-Jul-30 03:33N 38°02' E 023°31'0 0.0
2015-Jul-30 02:33N 38°02' E 023°31'0 0.0
2015-Jul-30 01:33N 38°02' E 023°31'0 0.0
2015-Jul-30 00:33N 38°02' E 023°31'0 0.0
2015-Jul-29 23:33N 38°02' E 023°31'1 0.7
2015-Jul-29 22:33N 38°02' E 023°31'0 0.0
2015-Jul-29 21:33N 38°02' E 023°31'0 0.0
2015-Jul-29 20:33N 38°02' E 023°31'0 0.0
2015-Jul-29 19:33N 38°02' E 023°31'0 0.0
2015-Jul-29 18:33N 38°02' E 023°31'0 0.0
2015-Jul-29 17:33N 38°02' E 023°31'0 0.0
2015-Jul-29 16:33N 38°02' E 023°31'0 0.0
2015-Jul-29 15:34N 38°02' E 023°31'0 0.0
2015-Jul-29 14:33N 38°02' E 023°31'0 0.0
2015-Jul-29 13:33N 38°02' E 023°31'0 0.4
2015-Jul-29 12:33N 38°02' E 023°31'0 0.0
2015-Jul-29 11:33N 38°02' E 023°31'5 5.2
2015-Jul-29 10:33N 37°57' E 023°34'5 5.4
2015-Jul-29 09:33N 37°52' E 023°33'0 0.0
2015-Jul-29 08:33N 37°52' E 023°33'0 0.0
2015-Jul-29 07:33N 37°52' E 023°33'0 0.0
2015-Jul-29 06:33N 37°52' E 023°33'0 0.0
2015-Jul-29 05:33N 37°52' E 023°33'5 5.1
2015-Jul-29 04:33N 37°57' E 023°35'6 6.0
2015-Jul-29 03:33N 38°02' E 023°32'0 0.0
2015-Jul-29 02:34N 38°02' E 023°32'0 0.0
2015-Jul-28 15:33N 38°02' E 023°32'4 4.1
2015-Jul-28 14:33N 37°58' E 023°33'5 4.7
2015-Jul-28 13:33N 37°56' E 023°38'0 0.0
2015-Jul-28 12:34N 37°56' E 023°38'0 0.0
2015-Jul-28 11:33N 37°56' E 023°38'0 0.0
2015-Jul-28 10:33N 37°56' E 023°38'1 1.1
2015-Jul-28 09:33N 37°56' E 023°37'4 4.1
2015-Jul-28 08:33N 37°59' E 023°33'3 3.4
2015-Jul-28 07:33N 38°02' E 023°32'0 0.0
2015-Jul-28 06:33N 38°02' E 023°32'0 0.0
2015-Jul-27 11:10N 38°02' E 023°32'0 0.0
2015-Jul-27 10:34N 38°02' E 023°32'0 0.0
2015-Jul-27 09:34N 38°02' E 023°32'0 0.0
2015-Jul-27 08:33N 38°02' E 023°32'0 0.0
2015-Jul-27 07:33N 38°02' E 023°32'0 0.0
2015-Jul-27 06:33N 38°02' E 023°32'0 0.0
2015-Jul-27 05:33N 38°02' E 023°32'0 0.0
2015-Jul-27 04:33N 38°02' E 023°32'0 0.0
2015-Jul-26 16:33N 38°02' E 023°32'0 0.3
2015-Jul-26 15:33N 38°02' E 023°32'1 0.9
2015-Jul-26 14:33N 38°02' E 023°31'0 0.0
2015-Jul-26 13:33N 38°02' E 023°31'0 0.0
2015-Jul-26 12:33N 38°02' E 023°31'0 0.0
2015-Jul-26 11:33N 38°02' E 023°31'0 0.0
2015-Jul-26 10:33N 38°02' E 023°31'0 0.0
2015-Jul-26 09:34N 38°02' E 023°31'0 0.0
2015-Jul-26 08:33N 38°02' E 023°31'0 0.0
2015-Jul-26 07:33N 38°02' E 023°31'0 0.0
2015-Jul-26 06:33N 38°02' E 023°31'0 0.0
2015-Jul-26 05:33N 38°02' E 023°31'1 0.8
2015-Jul-26 04:33N 38°02' E 023°32'0 0.3
2015-Jul-26 03:33N 38°02' E 023°32'0 0.0
2015-Jul-24 10:33N 38°02' E 023°32'0 0.0
2015-Jul-24 09:33N 38°02' E 023°32'1 0.9
2015-Jul-24 08:33N 38°01' E 023°33'7 6.8
2015-Jul-24 07:33N 37°56' E 023°38'0 0.0
2015-Jul-24 06:33N 37°56' E 023°38'0 0.0
2015-Jul-24 05:33N 37°56' E 023°38'1 1.3
2015-Jul-24 04:33N 37°57' E 023°37'0 0.1
2015-Jul-24 03:33N 37°57' E 023°36'6 5.7
2015-Jul-24 02:33N 38°01' E 023°32'1 1.0
2015-Jul-24 01:33N 38°02' E 023°32'0 0.0
2015-Jul-24 00:33N 38°02' E 023°32'0 0.0
2015-Jul-23 23:33N 38°02' E 023°32'0 0.0
2015-Jul-23 22:33N 38°02' E 023°32'0 0.0
2015-Jul-23 21:33N 38°02' E 023°32'0 0.0
2015-Jul-23 20:33N 38°02' E 023°32'0 0.0
2015-Jul-23 19:33N 38°02' E 023°32'0 0.0
2015-Jul-23 11:20N 38°02' E 023°32'0 0.0
2015-Jul-23 10:33N 38°02' E 023°32'0 0.0
2015-Jul-23 09:33N 38°02' E 023°32'2 2.4
2015-Jul-23 08:34N 37°60' E 023°33'4 3.8
2015-Jul-23 07:34N 37°58' E 023°37'0 0.0
2015-Jul-23 06:33N 37°58' E 023°37'0 0.5
2015-Jul-23 05:34N 37°57' E 023°36'5 4.8
2015-Jul-23 04:33N 38°01' E 023°32'1 1.1
2015-Jul-23 03:33N 38°02' E 023°32'0 0.0
2015-Jul-22 03:33N 38°02' E 023°32'0 0.0
2015-Jul-22 02:33N 38°02' E 023°32'3 3.0
2015-Jul-22 01:33N 38°02' E 023°36'0 0.1
2015-Jul-22 00:33N 38°02' E 023°36'0 0.0
2015-Jul-21 23:33N 38°02' E 023°36'0 0.0
2015-Jul-21 22:33N 38°02' E 023°36'1 0.6
2015-Jul-21 21:33N 38°02' E 023°35'0 0.3
2015-Jul-21 20:33N 38°02' E 023°35'0 0.0
2015-Jul-21 19:33N 38°02' E 023°35'0 0.0
2015-Jul-21 18:33N 38°02' E 023°35'0 0.0
2015-Jul-21 17:33N 38°02' E 023°35'0 0.0
2015-Jul-21 16:33N 38°02' E 023°35'0 0.0
2015-Jul-21 15:33N 38°02' E 023°35'0 0.0
2015-Jul-21 14:33N 38°02' E 023°35'0 0.0
2015-Jul-21 13:33N 38°02' E 023°35'0 0.0
2015-Jul-21 12:33N 38°02' E 023°35'4 4.2
2015-Jul-21 11:33N 37°57' E 023°33'4 3.7
2015-Jul-21 10:29N 37°56' E 023°38'0 0.0
2015-Jul-21 06:33N 37°56' E 023°38'2 1.5
2015-Jul-21 05:33N 37°57' E 023°36'7 6.6
2015-Jul-21 04:33N 38°02' E 023°32'0 0.0
2015-Jul-21 03:34N 38°02' E 023°32'0 0.0
2015-Jul-21 02:33N 38°02' E 023°32'  
Track history (hours):
 
Tides and Currents Weather Stations Pressure Air Temp Water Temp Dewpoint Dewpoint Depression Visibility Wind Speed Wind Dir Waves Ship Positions

Aegean Viii

Last reported at 2015-Jul-30 17:33 UTC. Time now 2015-Jul-30 18:10 UTC.
Position N 38°02' E 023°32'.

Length 12 m; draft 4.5 m.

Type: Tanker. MMSI: 240732000.

Date/timePositionNaut miles runAvg speedWind from/ knotsBaromVisibWave heightAir tempDewpointWater temp
2015-Jul-30 17:33N 38°02' E 023°32'0 0.0
2015-Jul-30 16:33N 38°02' E 023°32'0 0.0
2015-Jul-30 15:33N 38°02' E 023°32'1 0.7
2015-Jul-30 14:33N 38°02' E 023°32'5 5.3
2015-Jul-30 13:33N 37°58' E 023°37'0 0.0
2015-Jul-30 12:33N 37°58' E 023°37'0 0.0
2015-Jul-30 11:33N 37°58' E 023°37'2 2.3
2015-Jul-30 10:33N 37°57' E 023°34'0 0.1
2015-Jul-30 09:33N 37°57' E 023°34'0 0.0
2015-Jul-30 08:33N 37°57' E 023°34'0 0.0
2015-Jul-30 07:33N 37°57' E 023°34'3 2.8
2015-Jul-30 06:33N 37°60' E 023°33'2 2.4
2015-Jul-30 05:33N 38°02' E 023°31'0 0.0
2015-Jul-30 04:33N 38°02' E 023°31'0 0.0
2015-Jul-30 03:33N 38°02' E 023°31'0 0.0
2015-Jul-30 02:33N 38°02' E 023°31'0 0.0
2015-Jul-30 01:33N 38°02' E 023°31'0 0.0
2015-Jul-30 00:33N 38°02' E 023°31'0 0.0
2015-Jul-29 23:33N 38°02' E 023°31'1 0.7
2015-Jul-29 22:33N 38°02' E 023°31'0 0.0
2015-Jul-29 21:33N 38°02' E 023°31'0 0.0
2015-Jul-29 20:33N 38°02' E 023°31'0 0.0
2015-Jul-29 19:33N 38°02' E 023°31'0 0.0
2015-Jul-29 18:33N 38°02' E 023°31'0 0.0
2015-Jul-29 17:33N 38°02' E 023°31'0 0.0
2015-Jul-29 16:33N 38°02' E 023°31'0 0.0
2015-Jul-29 15:34N 38°02' E 023°31'0 0.0
2015-Jul-29 14:33N 38°02' E 023°31'0 0.0
2015-Jul-29 13:33N 38°02' E 023°31'0 0.4
2015-Jul-29 12:33N 38°02' E 023°31'0 0.0
2015-Jul-29 11:33N 38°02' E 023°31'5 5.2
2015-Jul-29 10:33N 37°57' E 023°34'5 5.4
2015-Jul-29 09:33N 37°52' E 023°33'0 0.0
2015-Jul-29 08:33N 37°52' E 023°33'0 0.0
2015-Jul-29 07:33N 37°52' E 023°33'0 0.0
2015-Jul-29 06:33N 37°52' E 023°33'0 0.0
2015-Jul-29 05:33N 37°52' E 023°33'5 5.1
2015-Jul-29 04:33N 37°57' E 023°35'6 6.0
2015-Jul-29 03:33N 38°02' E 023°32'0 0.0
2015-Jul-29 02:34N 38°02' E 023°32'0 0.0
2015-Jul-28 15:33N 38°02' E 023°32'4 4.1
2015-Jul-28 14:33N 37°58' E 023°33'5 4.7
2015-Jul-28 13:33N 37°56' E 023°38'0 0.0
2015-Jul-28 12:34N 37°56' E 023°38'0 0.0
2015-Jul-28 11:33N 37°56' E 023°38'0 0.0
2015-Jul-28 10:33N 37°56' E 023°38'1 1.1
2015-Jul-28 09:33N 37°56' E 023°37'4 4.1
2015-Jul-28 08:33N 37°59' E 023°33'3 3.4
2015-Jul-28 07:33N 38°02' E 023°32'0 0.0
2015-Jul-28 06:33N 38°02' E 023°32'0 0.0
2015-Jul-27 11:10N 38°02' E 023°32'0 0.0
2015-Jul-27 10:34N 38°02' E 023°32'0 0.0
2015-Jul-27 09:34N 38°02' E 023°32'0 0.0
2015-Jul-27 08:33N 38°02' E 023°32'0 0.0
2015-Jul-27 07:33N 38°02' E 023°32'0 0.0
2015-Jul-27 06:33N 38°02' E 023°32'0 0.0
2015-Jul-27 05:33N 38°02' E 023°32'0 0.0
2015-Jul-27 04:33N 38°02' E 023°32'0 0.0
2015-Jul-26 16:33N 38°02' E 023°32'0 0.3
2015-Jul-26 15:33N 38°02' E 023°32'1 0.9
2015-Jul-26 14:33N 38°02' E 023°31'0 0.0
2015-Jul-26 13:33N 38°02' E 023°31'0 0.0
2015-Jul-26 12:33N 38°02' E 023°31'0 0.0
2015-Jul-26 11:33N 38°02' E 023°31'0 0.0
2015-Jul-26 10:33N 38°02' E 023°31'0 0.0
2015-Jul-26 09:34N 38°02' E 023°31'0 0.0
2015-Jul-26 08:33N 38°02' E 023°31'0 0.0
2015-Jul-26 07:33N 38°02' E 023°31'0 0.0
2015-Jul-26 06:33N 38°02' E 023°31'0 0.0
2015-Jul-26 05:33N 38°02' E 023°31'1 0.8
2015-Jul-26 04:33N 38°02' E 023°32'0 0.3
2015-Jul-26 03:33N 38°02' E 023°32'0 0.0
2015-Jul-24 10:33N 38°02' E 023°32'0 0.0
2015-Jul-24 09:33N 38°02' E 023°32'1 0.9
2015-Jul-24 08:33N 38°01' E 023°33'7 6.8
2015-Jul-24 07:33N 37°56' E 023°38'0 0.0
2015-Jul-24 06:33N 37°56' E 023°38'0 0.0
2015-Jul-24 05:33N 37°56' E 023°38'1 1.3
2015-Jul-24 04:33N 37°57' E 023°37'0 0.1
2015-Jul-24 03:33N 37°57' E 023°36'6 5.7
2015-Jul-24 02:33N 38°01' E 023°32'1 1.0
2015-Jul-24 01:33N 38°02' E 023°32'0 0.0
2015-Jul-24 00:33N 38°02' E 023°32'0 0.0
2015-Jul-23 23:33N 38°02' E 023°32'0 0.0
2015-Jul-23 22:33N 38°02' E 023°32'0 0.0
2015-Jul-23 21:33N 38°02' E 023°32'0 0.0
2015-Jul-23 20:33N 38°02' E 023°32'0 0.0
2015-Jul-23 19:33N 38°02' E 023°32'0 0.0
2015-Jul-23 11:20N 38°02' E 023°32'0 0.0
2015-Jul-23 10:33N 38°02' E 023°32'0 0.0
2015-Jul-23 09:33N 38°02' E 023°32'2 2.4
2015-Jul-23 08:34N 37°60' E 023°33'4 3.8
2015-Jul-23 07:34N 37°58' E 023°37'0 0.0
2015-Jul-23 06:33N 37°58' E 023°37'0 0.5
2015-Jul-23 05:34N 37°57' E 023°36'5 4.8
2015-Jul-23 04:33N 38°01' E 023°32'1 1.1
2015-Jul-23 03:33N 38°02' E 023°32'0 0.0
2015-Jul-22 03:33N 38°02' E 023°32'0 0.0
2015-Jul-22 02:33N 38°02' E 023°32'3 3.0
2015-Jul-22 01:33N 38°02' E 023°36'0 0.1
2015-Jul-22 00:33N 38°02' E 023°36'0 0.0
2015-Jul-21 23:33N 38°02' E 023°36'0 0.0
2015-Jul-21 22:33N 38°02' E 023°36'1 0.6
2015-Jul-21 21:33N 38°02' E 023°35'0 0.3
2015-Jul-21 20:33N 38°02' E 023°35'0 0.0
2015-Jul-21 19:33N 38°02' E 023°35'0 0.0
2015-Jul-21 18:33N 38°02' E 023°35'0 0.0
2015-Jul-21 17:33N 38°02' E 023°35'0 0.0
2015-Jul-21 16:33N 38°02' E 023°35'0 0.0
2015-Jul-21 15:33N 38°02' E 023°35'0 0.0
2015-Jul-21 14:33N 38°02' E 023°35'0 0.0
2015-Jul-21 13:33N 38°02' E 023°35'0 0.0
2015-Jul-21 12:33N 38°02' E 023°35'4 4.2
2015-Jul-21 11:33N 37°57' E 023°33'4 3.7
2015-Jul-21 10:29N 37°56' E 023°38'0 0.0
2015-Jul-21 06:33N 37°56' E 023°38'2 1.5
2015-Jul-21 05:33N 37°57' E 023°36'7 6.6
2015-Jul-21 04:33N 38°02' E 023°32'0 0.0
2015-Jul-21 03:34N 38°02' E 023°32'0 0.0
2015-Jul-21 02:33N 38°02' E 023°32'  

Dump ship's entire track history